Terminal Aerodrome Forecast
Issued by NWS Cleveland, OH

Home | Current Version | Previous Version | Text Only | Print | Product List | Glossary On
Versions: 1 2 3 4 5 6 7 8 9 10 11 12 13 14 15 16 17
387
FTUS41 KCLE 101135
TAFMFD
TAF
KMFD 101135Z 1012/1112 24008KT P6SM OVC050
     FM102000 24010G18KT P6SM BKN070
     FM102300 23008KT P6SM OVC035
     FM110600 22005KT 3SM -SN OVC015
     FM110800 18005KT 1SM -SN OVC015=

USA.gov is the U.S. government's official web portal to all federal, state and local government web resources and services.